sensor_id;sensor_type;location;lat;lon;timestamp;P1;durP1;ratioP1;P2;durP2;ratioP2
64459;SDS011;50828;53.756;21.140;2023-06-26T00:01:32;9.30;;;5.60;;
64459;SDS011;50828;53.756;21.140;2023-06-26T00:06:39;9.40;;;5.30;;
64459;SDS011;50828;53.756;21.140;2023-06-26T00:11:47;8.90;;;5.60;;
64459;SDS011;50828;53.756;21.140;2023-06-26T00:16:56;6.60;;;5.20;;
64459;SDS011;50828;53.756;21.140;2023-06-26T00:22:04;7.30;;;5.10;;
64459;SDS011;50828;53.756;21.140;2023-06-26T00:27:12;6.60;;;4.80;;
64459;SDS011;50828;53.756;21.140;2023-06-26T00:32:20;6.30;;;4.90;;
64459;SDS011;50828;53.756;21.140;2023-06-26T00:37:28;6.50;;;4.80;;
64459;SDS011;50828;53.756;21.140;2023-06-26T00:42:35;8.40;;;5.30;;
64459;SDS011;50828;53.756;21.140;2023-06-26T00:47:43;6.90;;;5.00;;
64459;SDS011;50828;53.756;21.140;2023-06-26T00:52:51;9.30;;;5.70;;
64459;SDS011;50828;53.756;21.140;2023-06-26T00:58:05;8.10;;;5.10;;
64459;SDS011;50828;53.756;21.140;2023-06-26T01:03:13;8.50;;;5.10;;
64459;SDS011;50828;53.756;21.140;2023-06-26T01:08:21;11.40;;;6.60;;
64459;SDS011;50828;53.756;21.140;2023-06-26T01:13:30;9.10;;;6.60;;
64459;SDS011;50828;53.756;21.140;2023-06-26T01:18:41;5.70;;;4.30;;
64459;SDS011;50828;53.756;21.140;2023-06-26T01:23:58;7.60;;;5.00;;
64459;SDS011;50828;53.756;21.140;2023-06-26T01:29:13;4.40;;;3.80;;
64459;SDS011;50828;53.756;21.140;2023-06-26T01:34:23;6.50;;;5.00;;
64459;SDS011;50828;53.756;21.140;2023-06-26T01:39:32;5.60;;;4.30;;
64459;SDS011;50828;53.756;21.140;2023-06-26T01:44:42;5.50;;;4.60;;
64459;SDS011;50828;53.756;21.140;2023-06-26T01:49:52;4.80;;;4.00;;
64459;SDS011;50828;53.756;21.140;2023-06-26T01:55:05;6.00;;;4.80;;
64459;SDS011;50828;53.756;21.140;2023-06-26T02:00:22;6.30;;;4.60;;
64459;SDS011;50828;53.756;21.140;2023-06-26T02:05:31;6.90;;;5.20;;
64459;SDS011;50828;53.756;21.140;2023-06-26T02:10:55;6.10;;;4.40;;
64459;SDS011;50828;53.756;21.140;2023-06-26T02:16:03;6.30;;;4.50;;
64459;SDS011;50828;53.756;21.140;2023-06-26T02:21:11;7.00;;;4.80;;
64459;SDS011;50828;53.756;21.140;2023-06-26T02:26:19;7.10;;;5.10;;
64459;SDS011;50828;53.756;21.140;2023-06-26T02:31:27;9.10;;;5.60;;
64459;SDS011;50828;53.756;21.140;2023-06-26T02:36:35;9.20;;;6.60;;
64459;SDS011;50828;53.756;21.140;2023-06-26T02:41:44;8.70;;;5.60;;
64459;SDS011;50828;53.756;21.140;2023-06-26T02:46:52;7.00;;;5.70;;
64459;SDS011;50828;53.756;21.140;2023-06-26T02:52:00;6.40;;;5.00;;
64459;SDS011;50828;53.756;21.140;2023-06-26T02:57:08;7.00;;;5.40;;
64459;SDS011;50828;53.756;21.140;2023-06-26T03:02:18;7.10;;;4.70;;
64459;SDS011;50828;53.756;21.140;2023-06-26T03:07:27;4.90;;;3.80;;
64459;SDS011;50828;53.756;21.140;2023-06-26T03:12:34;5.80;;;3.90;;
64459;SDS011;50828;53.756;21.140;2023-06-26T03:17:42;4.30;;;3.20;;
64459;SDS011;50828;53.756;21.140;2023-06-26T03:22:54;4.20;;;3.20;;
64459;SDS011;50828;53.756;21.140;2023-06-26T03:28:02;3.60;;;3.00;;
64459;SDS011;50828;53.756;21.140;2023-06-26T03:33:11;3.40;;;3.00;;
64459;SDS011;50828;53.756;21.140;2023-06-26T03:38:19;3.80;;;3.00;;
64459;SDS011;50828;53.756;21.140;2023-06-26T03:43:28;5.50;;;3.80;;
64459;SDS011;50828;53.756;21.140;2023-06-26T03:48:45;7.50;;;4.80;;
64459;SDS011;50828;53.756;21.140;2023-06-26T03:53:53;5.70;;;4.20;;
64459;SDS011;50828;53.756;21.140;2023-06-26T03:59:03;4.50;;;4.00;;
64459;SDS011;50828;53.756;21.140;2023-06-26T04:04:11;7.50;;;4.40;;
64459;SDS011;50828;53.756;21.140;2023-06-26T04:09:19;5.60;;;4.00;;
64459;SDS011;50828;53.756;21.140;2023-06-26T04:14:26;3.90;;;3.40;;
64459;SDS011;50828;53.756;21.140;2023-06-26T04:19:34;4.20;;;3.70;;
64459;SDS011;50828;53.756;21.140;2023-06-26T04:24:42;4.90;;;4.00;;
64459;SDS011;50828;53.756;21.140;2023-06-26T04:29:50;4.80;;;3.80;;
64459;SDS011;50828;53.756;21.140;2023-06-26T04:34:59;6.00;;;4.60;;
64459;SDS011;50828;53.756;21.140;2023-06-26T04:40:07;8.10;;;4.30;;
64459;SDS011;50828;53.756;21.140;2023-06-26T04:45:16;6.80;;;4.80;;
64459;SDS011;50828;53.756;21.140;2023-06-26T04:50:24;6.30;;;4.70;;
64459;SDS011;50828;53.756;21.140;2023-06-26T04:55:33;9.00;;;5.60;;
64459;SDS011;50828;53.756;21.140;2023-06-26T05:00:42;6.90;;;5.10;;
64459;SDS011;50828;53.756;21.140;2023-06-26T05:05:50;7.50;;;5.00;;
64459;SDS011;50828;53.756;21.140;2023-06-26T05:10:57;9.70;;;4.60;;
64459;SDS011;50828;53.756;21.140;2023-06-26T05:16:05;8.40;;;4.30;;
64459;SDS011;50828;53.756;21.140;2023-06-26T05:21:13;11.20;;;5.70;;
64459;SDS011;50828;53.756;21.140;2023-06-26T05:26:23;6.80;;;5.00;;
64459;SDS011;50828;53.756;21.140;2023-06-26T05:31:32;8.00;;;4.10;;
64459;SDS011;50828;53.756;21.140;2023-06-26T05:36:43;10.50;;;3.70;;
64459;SDS011;50828;53.756;21.140;2023-06-26T05:41:52;4.90;;;3.10;;
64459;SDS011;50828;53.756;21.140;2023-06-26T05:47:01;6.00;;;2.90;;
64459;SDS011;50828;53.756;21.140;2023-06-26T05:52:11;7.80;;;3.40;;
64459;SDS011;50828;53.756;21.140;2023-06-26T05:57:19;8.80;;;3.40;;
64459;SDS011;50828;53.756;21.140;2023-06-26T06:02:28;4.70;;;2.90;;
64459;SDS011;50828;53.756;21.140;2023-06-26T06:07:35;4.60;;;2.90;;
64459;SDS011;50828;53.756;21.140;2023-06-26T06:12:43;5.30;;;3.10;;
64459;SDS011;50828;53.756;21.140;2023-06-26T06:17:50;4.00;;;2.60;;
64459;SDS011;50828;53.756;21.140;2023-06-26T06:22:58;4.00;;;2.50;;
64459;SDS011;50828;53.756;21.140;2023-06-26T06:28:05;4.50;;;2.60;;
64459;SDS011;50828;53.756;21.140;2023-06-26T06:33:13;4.70;;;2.30;;
64459;SDS011;50828;53.756;21.140;2023-06-26T06:38:21;3.90;;;2.30;;
64459;SDS011;50828;53.756;21.140;2023-06-26T06:43:29;5.10;;;2.00;;
64459;SDS011;50828;53.756;21.140;2023-06-26T06:48:36;4.80;;;2.00;;
64459;SDS011;50828;53.756;21.140;2023-06-26T06:53:44;4.10;;;1.80;;
64459;SDS011;50828;53.756;21.140;2023-06-26T06:58:52;5.30;;;2.00;;
64459;SDS011;50828;53.756;21.140;2023-06-26T07:03:59;3.90;;;1.90;;
64459;SDS011;50828;53.756;21.140;2023-06-26T07:09:07;3.90;;;1.70;;
64459;SDS011;50828;53.756;21.140;2023-06-26T07:14:15;2.20;;;1.80;;
64459;SDS011;50828;53.756;21.140;2023-06-26T07:19:23;2.60;;;2.10;;
64459;SDS011;50828;53.756;21.140;2023-06-26T07:24:30;4.40;;;2.30;;
64459;SDS011;50828;53.756;21.140;2023-06-26T07:29:38;3.50;;;2.10;;
64459;SDS011;50828;53.756;21.140;2023-06-26T07:34:45;4.00;;;2.30;;
64459;SDS011;50828;53.756;21.140;2023-06-26T07:39:53;3.60;;;2.60;;
64459;SDS011;50828;53.756;21.140;2023-06-26T07:45:01;4.80;;;2.90;;
64459;SDS011;50828;53.756;21.140;2023-06-26T07:50:14;4.40;;;2.50;;
64459;SDS011;50828;53.756;21.140;2023-06-26T07:55:25;6.40;;;2.80;;
64459;SDS011;50828;53.756;21.140;2023-06-26T08:00:32;5.50;;;3.20;;
64459;SDS011;50828;53.756;21.140;2023-06-26T08:05:41;3.60;;;2.70;;
64459;SDS011;50828;53.756;21.140;2023-06-26T08:10:48;4.40;;;3.10;;
64459;SDS011;50828;53.756;21.140;2023-06-26T08:15:56;5.10;;;3.10;;
64459;SDS011;50828;53.756;21.140;2023-06-26T08:21:03;5.30;;;2.80;;
64459;SDS011;50828;53.756;21.140;2023-06-26T08:26:13;4.60;;;3.10;;
64459;SDS011;50828;53.756;21.140;2023-06-26T08:31:21;5.50;;;3.20;;
64459;SDS011;50828;53.756;21.140;2023-06-26T08:36:29;4.00;;;2.90;;
64459;SDS011;50828;53.756;21.140;2023-06-26T08:41:37;4.40;;;2.90;;
64459;SDS011;50828;53.756;21.140;2023-06-26T08:46:46;4.20;;;2.90;;
64459;SDS011;50828;53.756;21.140;2023-06-26T08:51:55;5.00;;;3.10;;
64459;SDS011;50828;53.756;21.140;2023-06-26T08:57:07;4.80;;;3.10;;
64459;SDS011;50828;53.756;21.140;2023-06-26T09:02:16;4.70;;;2.80;;
64459;SDS011;50828;53.756;21.140;2023-06-26T09:07:24;3.80;;;2.60;;
64459;SDS011;50828;53.756;21.140;2023-06-26T09:12:32;3.20;;;2.50;;
64459;SDS011;50828;53.756;21.140;2023-06-26T09:17:41;4.50;;;2.50;;
64459;SDS011;50828;53.756;21.140;2023-06-26T09:22:49;4.00;;;2.80;;
64459;SDS011;50828;53.756;21.140;2023-06-26T09:27:57;4.00;;;2.60;;
64459;SDS011;50828;53.756;21.140;2023-06-26T09:33:14;4.30;;;2.40;;
64459;SDS011;50828;53.756;21.140;2023-06-26T09:38:23;4.80;;;2.60;;
64459;SDS011;50828;53.756;21.140;2023-06-26T09:43:31;4.60;;;2.80;;
64459;SDS011;50828;53.756;21.140;2023-06-26T09:53:47;3.80;;;2.90;;
64459;SDS011;50828;53.756;21.140;2023-06-26T09:58:57;5.20;;;2.50;;
64459;SDS011;50828;53.756;21.140;2023-06-26T10:04:06;3.50;;;2.40;;
64459;SDS011;50828;53.756;21.140;2023-06-26T10:09:14;3.60;;;2.50;;
64459;SDS011;50828;53.756;21.140;2023-06-26T10:14:26;3.20;;;2.50;;
64459;SDS011;50828;53.756;21.140;2023-06-26T10:19:37;5.50;;;2.30;;
64459;SDS011;50828;53.756;21.140;2023-06-26T10:24:47;3.50;;;2.30;;
64459;SDS011;50828;53.756;21.140;2023-06-26T10:29:58;3.40;;;2.10;;
64459;SDS011;50828;53.756;21.140;2023-06-26T10:35:10;2.90;;;2.20;;
64459;SDS011;50828;53.756;21.140;2023-06-26T10:40:24;5.10;;;2.10;;
64459;SDS011;50828;53.756;21.140;2023-06-26T10:45:34;3.80;;;2.20;;
64459;SDS011;50828;53.756;21.140;2023-06-26T10:50:43;4.30;;;2.10;;
64459;SDS011;50828;53.756;21.140;2023-06-26T10:55:56;3.90;;;2.80;;
64459;SDS011;50828;53.756;21.140;2023-06-26T11:06:47;2.90;;;2.00;;
64459;SDS011;50828;53.756;21.140;2023-06-26T11:17:55;6.00;;;2.30;;
64459;SDS011;50828;53.756;21.140;2023-06-26T11:23:04;6.30;;;2.70;;
64459;SDS011;50828;53.756;21.140;2023-06-26T11:28:13;3.70;;;2.40;;
64459;SDS011;50828;53.756;21.140;2023-06-26T11:33:26;2.50;;;1.90;;
64459;SDS011;50828;53.756;21.140;2023-06-26T11:38:38;5.40;;;2.40;;
64459;SDS011;50828;53.756;21.140;2023-06-26T11:43:46;4.50;;;2.10;;
64459;SDS011;50828;53.756;21.140;2023-06-26T11:48:58;3.70;;;2.30;;
64459;SDS011;50828;53.756;21.140;2023-06-26T11:54:10;3.10;;;2.30;;
64459;SDS011;50828;53.756;21.140;2023-06-26T11:59:19;4.30;;;2.50;;
64459;SDS011;50828;53.756;21.140;2023-06-26T12:04:29;4.30;;;2.30;;
64459;SDS011;50828;53.756;21.140;2023-06-26T12:09:40;3.30;;;2.00;;
64459;SDS011;50828;53.756;21.140;2023-06-26T12:14:50;3.10;;;1.90;;
64459;SDS011;50828;53.756;21.140;2023-06-26T12:19:59;3.90;;;2.40;;
64459;SDS011;50828;53.756;21.140;2023-06-26T12:25:09;2.90;;;2.20;;
64459;SDS011;50828;53.756;21.140;2023-06-26T12:30:17;6.40;;;2.20;;
64459;SDS011;50828;53.756;21.140;2023-06-26T12:35:26;3.80;;;2.40;;
64459;SDS011;50828;53.756;21.140;2023-06-26T12:40:35;4.40;;;2.20;;
64459;SDS011;50828;53.756;21.140;2023-06-26T12:45:56;3.10;;;2.00;;
64459;SDS011;50828;53.756;21.140;2023-06-26T12:51:09;2.90;;;2.20;;
64459;SDS011;50828;53.756;21.140;2023-06-26T12:56:17;4.40;;;2.30;;
64459;SDS011;50828;53.756;21.140;2023-06-26T13:01:26;3.40;;;2.00;;
64459;SDS011;50828;53.756;21.140;2023-06-26T13:06:35;2.70;;;2.10;;
64459;SDS011;50828;53.756;21.140;2023-06-26T13:11:44;3.50;;;1.90;;
64459;SDS011;50828;53.756;21.140;2023-06-26T13:16:53;3.00;;;2.20;;
64459;SDS011;50828;53.756;21.140;2023-06-26T13:22:02;2.20;;;1.70;;
64459;SDS011;50828;53.756;21.140;2023-06-26T13:27:11;2.90;;;1.80;;
64459;SDS011;50828;53.756;21.140;2023-06-26T13:32:20;2.20;;;1.60;;
64459;SDS011;50828;53.756;21.140;2023-06-26T13:37:29;3.20;;;1.90;;
64459;SDS011;50828;53.756;21.140;2023-06-26T13:42:38;2.20;;;1.60;;
64459;SDS011;50828;53.756;21.140;2023-06-26T13:47:49;4.80;;;2.00;;
64459;SDS011;50828;53.756;21.140;2023-06-26T13:52:57;3.20;;;1.70;;
64459;SDS011;50828;53.756;21.140;2023-06-26T13:58:07;3.70;;;1.80;;
64459;SDS011;50828;53.756;21.140;2023-06-26T14:03:15;3.30;;;1.90;;
64459;SDS011;50828;53.756;21.140;2023-06-26T14:08:24;2.30;;;1.70;;
64459;SDS011;50828;53.756;21.140;2023-06-26T14:13:32;2.40;;;1.60;;
64459;SDS011;50828;53.756;21.140;2023-06-26T14:18:40;2.80;;;1.70;;
64459;SDS011;50828;53.756;21.140;2023-06-26T14:23:49;2.70;;;1.90;;
64459;SDS011;50828;53.756;21.140;2023-06-26T14:28:58;3.00;;;1.60;;
64459;SDS011;50828;53.756;21.140;2023-06-26T14:34:06;2.30;;;1.80;;
64459;SDS011;50828;53.756;21.140;2023-06-26T14:39:14;3.00;;;1.80;;
64459;SDS011;50828;53.756;21.140;2023-06-26T14:44:22;3.00;;;2.00;;
64459;SDS011;50828;53.756;21.140;2023-06-26T14:49:31;1.80;;;1.60;;
64459;SDS011;50828;53.756;21.140;2023-06-26T14:54:39;2.80;;;1.60;;
64459;SDS011;50828;53.756;21.140;2023-06-26T14:59:48;3.10;;;1.90;;
64459;SDS011;50828;53.756;21.140;2023-06-26T15:04:55;4.50;;;2.00;;
64459;SDS011;50828;53.756;21.140;2023-06-26T15:10:03;2.40;;;1.60;;
64459;SDS011;50828;53.756;21.140;2023-06-26T15:15:14;3.90;;;1.60;;
64459;SDS011;50828;53.756;21.140;2023-06-26T15:20:23;3.40;;;1.70;;
64459;SDS011;50828;53.756;21.140;2023-06-26T15:25:31;2.90;;;1.60;;
64459;SDS011;50828;53.756;21.140;2023-06-26T15:30:40;4.10;;;1.80;;
64459;SDS011;50828;53.756;21.140;2023-06-26T15:35:48;2.30;;;1.60;;
64459;SDS011;50828;53.756;21.140;2023-06-26T15:40:57;2.90;;;1.90;;
64459;SDS011;50828;53.756;21.140;2023-06-26T15:46:06;2.80;;;1.70;;
64459;SDS011;50828;53.756;21.140;2023-06-26T15:51:14;2.70;;;1.60;;
64459;SDS011;50828;53.756;21.140;2023-06-26T15:56:22;3.80;;;1.70;;
64459;SDS011;50828;53.756;21.140;2023-06-26T16:01:30;3.40;;;1.80;;
64459;SDS011;50828;53.756;21.140;2023-06-26T16:06:38;3.70;;;2.00;;
64459;SDS011;50828;53.756;21.140;2023-06-26T16:11:46;3.30;;;2.10;;
64459;SDS011;50828;53.756;21.140;2023-06-26T16:16:54;3.90;;;2.40;;
64459;SDS011;50828;53.756;21.140;2023-06-26T16:22:02;3.70;;;1.80;;
64459;SDS011;50828;53.756;21.140;2023-06-26T16:27:11;2.40;;;1.70;;
64459;SDS011;50828;53.756;21.140;2023-06-26T16:32:19;2.70;;;2.00;;
64459;SDS011;50828;53.756;21.140;2023-06-26T16:37:28;3.40;;;2.80;;
64459;SDS011;50828;53.756;21.140;2023-06-26T16:42:37;5.00;;;4.30;;
64459;SDS011;50828;53.756;21.140;2023-06-26T16:47:47;6.40;;;3.60;;
64459;SDS011;50828;53.756;21.140;2023-06-26T16:53:04;6.60;;;3.10;;
64459;SDS011;50828;53.756;21.140;2023-06-26T16:58:12;3.80;;;2.90;;
64459;SDS011;50828;53.756;21.140;2023-06-26T17:03:20;4.50;;;2.30;;
64459;SDS011;50828;53.756;21.140;2023-06-26T17:08:28;4.30;;;2.20;;
64459;SDS011;50828;53.756;21.140;2023-06-26T17:13:37;3.00;;;2.20;;
64459;SDS011;50828;53.756;21.140;2023-06-26T17:18:46;4.60;;;2.00;;
64459;SDS011;50828;53.756;21.140;2023-06-26T17:23:54;3.40;;;2.00;;
64459;SDS011;50828;53.756;21.140;2023-06-26T17:29:03;4.30;;;2.30;;
64459;SDS011;50828;53.756;21.140;2023-06-26T17:34:12;3.60;;;2.10;;
64459;SDS011;50828;53.756;21.140;2023-06-26T17:39:21;3.60;;;2.30;;
64459;SDS011;50828;53.756;21.140;2023-06-26T17:44:31;2.50;;;1.80;;
64459;SDS011;50828;53.756;21.140;2023-06-26T17:49:39;4.20;;;2.10;;
64459;SDS011;50828;53.756;21.140;2023-06-26T17:54:48;2.80;;;1.90;;
64459;SDS011;50828;53.756;21.140;2023-06-26T17:59:55;4.60;;;2.30;;
64459;SDS011;50828;53.756;21.140;2023-06-26T18:05:03;9.80;;;5.20;;
64459;SDS011;50828;53.756;21.140;2023-06-26T18:10:13;9.10;;;6.40;;
64459;SDS011;50828;53.756;21.140;2023-06-26T18:15:21;5.40;;;3.90;;
64459;SDS011;50828;53.756;21.140;2023-06-26T18:20:29;3.60;;;3.10;;
64459;SDS011;50828;53.756;21.140;2023-06-26T18:25:37;8.90;;;3.70;;
64459;SDS011;50828;53.756;21.140;2023-06-26T18:30:45;4.20;;;2.70;;
64459;SDS011;50828;53.756;21.140;2023-06-26T18:35:53;12.40;;;2.90;;
64459;SDS011;50828;53.756;21.140;2023-06-26T18:41:01;4.80;;;2.70;;
64459;SDS011;50828;53.756;21.140;2023-06-26T18:46:10;4.40;;;2.60;;
64459;SDS011;50828;53.756;21.140;2023-06-26T18:51:18;6.80;;;2.90;;
64459;SDS011;50828;53.756;21.140;2023-06-26T18:56:27;5.70;;;2.60;;
64459;SDS011;50828;53.756;21.140;2023-06-26T19:01:35;6.00;;;2.50;;
64459;SDS011;50828;53.756;21.140;2023-06-26T19:06:43;4.60;;;2.90;;
64459;SDS011;50828;53.756;21.140;2023-06-26T19:11:52;5.40;;;2.90;;
64459;SDS011;50828;53.756;21.140;2023-06-26T19:17:00;5.70;;;2.80;;
64459;SDS011;50828;53.756;21.140;2023-06-26T19:22:09;9.90;;;3.00;;
64459;SDS011;50828;53.756;21.140;2023-06-26T19:27:18;4.40;;;2.70;;
64459;SDS011;50828;53.756;21.140;2023-06-26T19:32:26;5.40;;;2.60;;
64459;SDS011;50828;53.756;21.140;2023-06-26T19:37:35;7.40;;;5.00;;
64459;SDS011;50828;53.756;21.140;2023-06-26T19:43:04;6.70;;;3.70;;
64459;SDS011;50828;53.756;21.140;2023-06-26T19:48:12;7.40;;;5.60;;
64459;SDS011;50828;53.756;21.140;2023-06-26T19:53:20;14.10;;;9.50;;
64459;SDS011;50828;53.756;21.140;2023-06-26T19:58:28;13.10;;;9.80;;
64459;SDS011;50828;53.756;21.140;2023-06-26T20:03:37;20.90;;;12.20;;
64459;SDS011;50828;53.756;21.140;2023-06-26T20:08:46;20.70;;;11.30;;
64459;SDS011;50828;53.756;21.140;2023-06-26T20:13:55;17.50;;;7.90;;
64459;SDS011;50828;53.756;21.140;2023-06-26T20:19:03;15.00;;;8.30;;
64459;SDS011;50828;53.756;21.140;2023-06-26T20:24:12;14.40;;;7.10;;
64459;SDS011;50828;53.756;21.140;2023-06-26T20:29:19;9.30;;;4.90;;
64459;SDS011;50828;53.756;21.140;2023-06-26T20:34:28;5.40;;;2.90;;
64459;SDS011;50828;53.756;21.140;2023-06-26T20:39:36;4.80;;;2.30;;
64459;SDS011;50828;53.756;21.140;2023-06-26T20:44:45;6.80;;;2.20;;
64459;SDS011;50828;53.756;21.140;2023-06-26T20:49:54;2.90;;;1.90;;
64459;SDS011;50828;53.756;21.140;2023-06-26T20:55:03;4.50;;;2.10;;
64459;SDS011;50828;53.756;21.140;2023-06-26T21:00:13;3.90;;;1.80;;
64459;SDS011;50828;53.756;21.140;2023-06-26T21:05:23;4.50;;;1.90;;
64459;SDS011;50828;53.756;21.140;2023-06-26T21:10:32;3.10;;;1.70;;
64459;SDS011;50828;53.756;21.140;2023-06-26T21:15:41;3.00;;;2.10;;
64459;SDS011;50828;53.756;21.140;2023-06-26T21:20:49;4.90;;;2.00;;
64459;SDS011;50828;53.756;21.140;2023-06-26T21:25:57;2.90;;;1.90;;
64459;SDS011;50828;53.756;21.140;2023-06-26T21:31:05;5.50;;;2.20;;
64459;SDS011;50828;53.756;21.140;2023-06-26T21:36:17;2.70;;;1.70;;
64459;SDS011;50828;53.756;21.140;2023-06-26T21:41:27;4.10;;;2.50;;
64459;SDS011;50828;53.756;21.140;2023-06-26T21:46:38;5.50;;;2.10;;
64459;SDS011;50828;53.756;21.140;2023-06-26T21:51:45;4.10;;;2.20;;
64459;SDS011;50828;53.756;21.140;2023-06-26T21:56:54;4.20;;;2.00;;
64459;SDS011;50828;53.756;21.140;2023-06-26T22:02:02;3.70;;;2.10;;
64459;SDS011;50828;53.756;21.140;2023-06-26T22:07:10;4.50;;;2.00;;
64459;SDS011;50828;53.756;21.140;2023-06-26T22:12:19;6.70;;;2.30;;
64459;SDS011;50828;53.756;21.140;2023-06-26T22:17:28;3.40;;;1.90;;
64459;SDS011;50828;53.756;21.140;2023-06-26T22:22:37;3.80;;;1.60;;
64459;SDS011;50828;53.756;21.140;2023-06-26T22:27:46;4.20;;;2.20;;
64459;SDS011;50828;53.756;21.140;2023-06-26T22:32:56;3.10;;;1.60;;
64459;SDS011;50828;53.756;21.140;2023-06-26T22:38:05;3.10;;;1.80;;
64459;SDS011;50828;53.756;21.140;2023-06-26T22:43:13;2.50;;;1.80;;
64459;SDS011;50828;53.756;21.140;2023-06-26T22:48:22;2.70;;;1.70;;
64459;SDS011;50828;53.756;21.140;2023-06-26T22:53:30;3.80;;;2.00;;
64459;SDS011;50828;53.756;21.140;2023-06-26T22:58:39;2.90;;;1.80;;
64459;SDS011;50828;53.756;21.140;2023-06-26T23:03:46;3.20;;;1.70;;
64459;SDS011;50828;53.756;21.140;2023-06-26T23:08:54;3.80;;;2.00;;
64459;SDS011;50828;53.756;21.140;2023-06-26T23:14:03;4.20;;;2.20;;
64459;SDS011;50828;53.756;21.140;2023-06-26T23:19:10;4.20;;;2.10;;
64459;SDS011;50828;53.756;21.140;2023-06-26T23:24:18;3.70;;;2.30;;
64459;SDS011;50828;53.756;21.140;2023-06-26T23:29:27;4.00;;;2.10;;
64459;SDS011;50828;53.756;21.140;2023-06-26T23:34:35;3.50;;;1.90;;
64459;SDS011;50828;53.756;21.140;2023-06-26T23:39:44;3.40;;;1.90;;
64459;SDS011;50828;53.756;21.140;2023-06-26T23:44:52;4.30;;;1.90;;
64459;SDS011;50828;53.756;21.140;2023-06-26T23:50:00;3.10;;;1.90;;
64459;SDS011;50828;53.756;21.140;2023-06-26T23:55:09;4.50;;;2.10;;
